sensor_id;sensor_type;location;lat;lon;timestamp;pressure;altitude;pressure_sealevel;temperature;humidity
49311;BME280;35177;45.900;5.946;2022-09-25T00:01:15;97177.16;;;11.31;100.00
49311;BME280;35177;45.900;5.946;2022-09-25T00:03:41;97183.19;;;11.42;100.00
49311;BME280;35177;45.900;5.946;2022-09-25T00:06:11;97185.44;;;11.49;100.00
49311;BME280;35177;45.900;5.946;2022-09-25T00:08:38;97176.47;;;11.43;100.00
49311;BME280;35177;45.900;5.946;2022-09-25T00:11:09;97175.66;;;11.43;100.00
49311;BME280;35177;45.900;5.946;2022-09-25T00:13:36;97171.09;;;11.29;100.00
49311;BME280;35177;45.900;5.946;2022-09-25T00:16:01;97172.72;;;11.39;100.00
49311;BME280;35177;45.900;5.946;2022-09-25T00:18:28;97174.84;;;11.42;100.00
49311;BME280;35177;45.900;5.946;2022-09-25T00:21:14;97169.28;;;11.42;100.00
49311;BME280;35177;45.900;5.946;2022-09-25T00:23:41;97170.44;;;11.41;100.00
49311;BME280;35177;45.900;5.946;2022-09-25T00:26:09;97180.88;;;11.44;100.00
49311;BME280;35177;45.900;5.946;2022-09-25T00:28:36;97177.28;;;11.44;100.00
49311;BME280;35177;45.900;5.946;2022-09-25T00:31:06;97171.22;;;11.50;100.00
49311;BME280;35177;45.900;5.946;2022-09-25T00:33:33;97163.84;;;11.54;100.00
49311;BME280;35177;45.900;5.946;2022-09-25T00:36:02;97165.16;;;11.57;100.00
49311;BME280;35177;45.900;5.946;2022-09-25T00:38:30;97167.63;;;11.50;100.00
49311;BME280;35177;45.900;5.946;2022-09-25T00:40:56;97152.44;;;11.47;100.00
49311;BME280;35177;45.900;5.946;2022-09-25T00:46:06;97151.94;;;11.45;100.00
49311;BME280;35177;45.900;5.946;2022-09-25T00:48:33;97144.44;;;11.46;100.00
49311;BME280;35177;45.900;5.946;2022-09-25T00:50:59;97146.88;;;11.47;100.00
49311;BME280;35177;45.900;5.946;2022-09-25T00:53:34;97145.28;;;11.37;100.00
49311;BME280;35177;45.900;5.946;2022-09-25T00:56:02;97146.56;;;11.40;100.00
49311;BME280;35177;45.900;5.946;2022-09-25T00:58:31;97154.47;;;11.20;100.00
49311;BME280;35177;45.900;5.946;2022-09-25T01:00:58;97155.84;;;10.97;100.00
49311;BME280;35177;45.900;5.946;2022-09-25T01:03:24;97157.00;;;10.69;100.00
49311;BME280;35177;45.900;5.946;2022-09-25T01:05:51;97162.88;;;10.68;100.00
49311;BME280;35177;45.900;5.946;2022-09-25T01:08:22;97155.69;;;10.67;100.00
49311;BME280;35177;45.900;5.946;2022-09-25T01:10:50;97153.91;;;10.71;100.00
49311;BME280;35177;45.900;5.946;2022-09-25T01:13:16;97150.00;;;10.63;100.00
49311;BME280;35177;45.900;5.946;2022-09-25T01:18:35;97151.28;;;10.66;100.00
49311;BME280;35177;45.900;5.946;2022-09-25T01:30:31;97130.88;;;10.61;100.00
49311;BME280;35177;45.900;5.946;2022-09-25T01:33:08;97141.81;;;10.58;100.00
49311;BME280;35177;45.900;5.946;2022-09-25T01:35:56;97123.03;;;10.64;100.00
49311;BME280;35177;45.900;5.946;2022-09-25T01:38:43;97130.25;;;10.56;100.00
49311;BME280;35177;45.900;5.946;2022-09-25T01:41:32;97130.06;;;10.61;100.00
49311;BME280;35177;45.900;5.946;2022-09-25T01:44:08;97128.75;;;10.58;100.00
49311;BME280;35177;45.900;5.946;2022-09-25T01:46:41;97127.31;;;10.52;100.00
49311;BME280;35177;45.900;5.946;2022-09-25T01:49:38;97124.19;;;10.45;100.00
49311;BME280;35177;45.900;5.946;2022-09-25T01:52:11;97120.59;;;10.44;100.00
49311;BME280;35177;45.900;5.946;2022-09-25T01:54:44;97125.00;;;10.54;100.00
49311;BME280;35177;45.900;5.946;2022-09-25T01:57:20;97130.88;;;10.61;100.00
49311;BME280;35177;45.900;5.946;2022-09-25T01:59:59;97118.47;;;10.59;100.00
49311;BME280;35177;45.900;5.946;2022-09-25T02:02:30;97125.81;;;10.55;100.00
49311;BME280;35177;45.900;5.946;2022-09-25T02:05:21;97129.41;;;10.38;100.00
49311;BME280;35177;45.900;5.946;2022-09-25T02:07:54;97127.59;;;10.51;100.00
49311;BME280;35177;45.900;5.946;2022-09-25T02:10:44;97120.09;;;10.60;100.00
49311;BME280;35177;45.900;5.946;2022-09-25T02:13:15;97126.47;;;10.60;100.00
49311;BME280;35177;45.900;5.946;2022-09-25T02:15:50;97128.09;;;10.61;100.00
49311;BME280;35177;45.900;5.946;2022-09-25T02:18:18;97121.91;;;10.56;100.00
49311;BME280;35177;45.900;5.946;2022-09-25T02:21:13;97129.91;;;10.57;100.00
49311;BME280;35177;45.900;5.946;2022-09-25T02:26:34;97131.38;;;10.55;100.00
49311;BME280;35177;45.900;5.946;2022-09-25T02:29:00;97126.78;;;10.59;100.00
49311;BME280;35177;45.900;5.946;2022-09-25T02:32:02;97128.44;;;10.60;100.00
49311;BME280;35177;45.900;5.946;2022-09-25T02:34:30;97126.31;;;10.66;100.00
49311;BME280;35177;45.900;5.946;2022-09-25T02:36:56;97122.88;;;10.60;100.00
49311;BME280;35177;45.900;5.946;2022-09-25T02:39:24;97130.56;;;10.37;100.00
49311;BME280;35177;45.900;5.946;2022-09-25T02:47:56;97136.69;;;10.07;100.00
49311;BME280;35177;45.900;5.946;2022-09-25T02:53:38;97134.94;;;10.20;100.00
49311;BME280;35177;45.900;5.946;2022-09-25T02:56:11;97138.16;;;10.22;100.00
49311;BME280;35177;45.900;5.946;2022-09-25T02:58:40;97134.25;;;10.32;100.00
49311;BME280;35177;45.900;5.946;2022-09-25T03:01:12;97129.91;;;10.40;100.00
49311;BME280;35177;45.900;5.946;2022-09-25T03:03:39;97123.88;;;10.38;100.00
49311;BME280;35177;45.900;5.946;2022-09-25T03:06:06;97125.00;;;10.37;100.00
49311;BME280;35177;45.900;5.946;2022-09-25T03:08:35;97131.50;;;10.32;100.00
49311;BME280;35177;45.900;5.946;2022-09-25T03:11:21;97138.03;;;10.27;100.00
49311;BME280;35177;45.900;5.946;2022-09-25T03:19:05;97150.47;;;10.39;100.00
49311;BME280;35177;45.900;5.946;2022-09-25T03:21:30;97145.91;;;10.43;100.00
49311;BME280;35177;45.900;5.946;2022-09-25T03:23:57;97154.38;;;10.38;100.00
49311;BME280;35177;45.900;5.946;2022-09-25T03:26:24;97156.34;;;10.37;100.00
49311;BME280;35177;45.900;5.946;2022-09-25T03:28:50;97160.09;;;10.41;100.00
49311;BME280;35177;45.900;5.946;2022-09-25T03:31:16;97157.31;;;10.50;100.00
49311;BME280;35177;45.900;5.946;2022-09-25T03:33:42;97154.56;;;10.41;100.00
49311;BME280;35177;45.900;5.946;2022-09-25T03:36:12;97158.97;;;10.42;100.00
49311;BME280;35177;45.900;5.946;2022-09-25T03:38:39;97156.66;;;10.44;100.00
49311;BME280;35177;45.900;5.946;2022-09-25T03:41:11;97153.41;;;10.51;100.00
49311;BME280;35177;45.900;5.946;2022-09-25T03:43:38;97158.78;;;10.56;100.00
49311;BME280;35177;45.900;5.946;2022-09-25T03:46:06;97144.91;;;10.56;100.00
49311;BME280;35177;45.900;5.946;2022-09-25T03:48:32;97142.63;;;10.58;100.00
49311;BME280;35177;45.900;5.946;2022-09-25T03:50:58;97141.50;;;10.59;100.00
49311;BME280;35177;45.900;5.946;2022-09-25T03:53:25;97139.69;;;10.64;100.00
49311;BME280;35177;45.900;5.946;2022-09-25T03:55:52;97140.50;;;10.64;100.00
49311;BME280;35177;45.900;5.946;2022-09-25T03:58:18;97145.06;;;10.69;100.00
49311;BME280;35177;45.900;5.946;2022-09-25T04:00:45;97139.69;;;10.72;100.00
49311;BME280;35177;45.900;5.946;2022-09-25T04:03:12;97141.34;;;10.65;100.00
49311;BME280;35177;45.900;5.946;2022-09-25T04:05:37;97139.19;;;10.61;100.00
49311;BME280;35177;45.900;5.946;2022-09-25T04:08:03;97130.88;;;10.61;100.00
49311;BME280;35177;45.900;5.946;2022-09-25T04:10:29;97131.03;;;10.65;100.00
49311;BME280;35177;45.900;5.946;2022-09-25T04:12:55;97127.47;;;10.65;100.00
49311;BME280;35177;45.900;5.946;2022-09-25T04:15:21;97134.94;;;10.64;100.00
49311;BME280;35177;45.900;5.946;2022-09-25T04:17:51;97145.25;;;10.64;100.00
49311;BME280;35177;45.900;5.946;2022-09-25T04:20:19;97142.63;;;10.58;100.00
49311;BME280;35177;45.900;5.946;2022-09-25T04:22:45;97133.00;;;10.65;100.00
49311;BME280;35177;45.900;5.946;2022-09-25T04:25:10;97131.38;;;10.64;100.00
49311;BME280;35177;45.900;5.946;2022-09-25T04:27:36;97123.38;;;10.71;100.00
49311;BME280;35177;45.900;5.946;2022-09-25T04:30:03;97125.47;;;10.74;100.00
49311;BME280;35177;45.900;5.946;2022-09-25T04:32:29;97131.19;;;10.69;100.00
49311;BME280;35177;45.900;5.946;2022-09-25T04:35:13;97134.47;;;10.71;100.00
49311;BME280;35177;45.900;5.946;2022-09-25T04:37:38;97135.13;;;10.68;100.00
49311;BME280;35177;45.900;5.946;2022-09-25T04:40:04;97129.72;;;10.63;100.00
49311;BME280;35177;45.900;5.946;2022-09-25T04:42:30;97127.63;;;10.59;100.00
49311;BME280;35177;45.900;5.946;2022-09-25T04:44:56;97133.19;;;10.59;100.00
49311;BME280;35177;45.900;5.946;2022-09-25T04:47:23;97136.41;;;10.61;100.00
49311;BME280;35177;45.900;5.946;2022-09-25T04:49:49;97133.16;;;10.51;100.00
49311;BME280;35177;45.900;5.946;2022-09-25T04:52:17;97123.69;;;10.52;100.00
49311;BME280;35177;45.900;5.946;2022-09-25T04:54:43;97131.53;;;10.58;100.00
49311;BME280;35177;45.900;5.946;2022-09-25T04:57:12;97132.00;;;10.60;100.00
49311;BME280;35177;45.900;5.946;2022-09-25T04:59:38;97126.00;;;10.58;100.00
49311;BME280;35177;45.900;5.946;2022-09-25T05:02:05;97129.41;;;10.55;100.00
49311;BME280;35177;45.900;5.946;2022-09-25T05:04:30;97130.06;;;10.52;100.00
49311;BME280;35177;45.900;5.946;2022-09-25T05:06:56;97130.72;;;10.58;100.00
49311;BME280;35177;45.900;5.946;2022-09-25T05:09:21;97131.53;;;10.58;100.00
49311;BME280;35177;45.900;5.946;2022-09-25T05:11:47;97121.91;;;10.56;100.00
49311;BME280;35177;45.900;5.946;2022-09-25T05:14:12;97128.28;;;10.56;100.00
49311;BME280;35177;45.900;5.946;2022-09-25T05:16:38;97125.03;;;10.63;100.00
49311;BME280;35177;45.900;5.946;2022-09-25T05:19:03;97127.13;;;10.66;100.00
49311;BME280;35177;45.900;5.946;2022-09-25T05:21:29;97115.38;;;10.69;100.00
49311;BME280;35177;45.900;5.946;2022-09-25T05:23:54;97127.78;;;10.72;100.00
49311;BME280;35177;45.900;5.946;2022-09-25T05:26:21;97122.69;;;10.74;100.00
49311;BME280;35177;45.900;5.946;2022-09-25T05:28:48;97122.06;;;10.77;100.00
49311;BME280;35177;45.900;5.946;2022-09-25T05:31:15;97123.38;;;10.71;100.00
49311;BME280;35177;45.900;5.946;2022-09-25T05:33:41;97131.84;;;10.74;100.00
49311;BME280;35177;45.900;5.946;2022-09-25T05:36:08;97133.97;;;10.77;100.00
49311;BME280;35177;45.900;5.946;2022-09-25T05:38:36;97128.59;;;10.72;100.00
49311;BME280;35177;45.900;5.946;2022-09-25T05:41:06;97137.59;;;10.69;100.00
49311;BME280;35177;45.900;5.946;2022-09-25T05:43:33;97136.41;;;10.61;100.00
49311;BME280;35177;45.900;5.946;2022-09-25T05:45:59;97142.28;;;10.69;100.00
49311;BME280;35177;45.900;5.946;2022-09-25T05:48:25;97147.50;;;10.70;100.00
49311;BME280;35177;45.900;5.946;2022-09-25T05:50:54;97149.00;;;10.59;100.00
49311;BME280;35177;45.900;5.946;2022-09-25T05:53:20;97162.88;;;10.59;100.00
49311;BME280;35177;45.900;5.946;2022-09-25T05:55:53;97164.16;;;10.61;100.00
49311;BME280;35177;45.900;5.946;2022-09-25T05:58:19;97165.00;;;10.62;100.00
49311;BME280;35177;45.900;5.946;2022-09-25T06:00:46;97165.47;;;10.64;100.00
49311;BME280;35177;45.900;5.946;2022-09-25T06:03:12;97152.44;;;10.65;100.00
49311;BME280;35177;45.900;5.946;2022-09-25T06:05:38;97158.16;;;10.68;100.00
49311;BME280;35177;45.900;5.946;2022-09-25T06:08:07;97160.94;;;10.59;100.00
49311;BME280;35177;45.900;5.946;2022-09-25T06:10:33;97156.34;;;10.64;100.00
49311;BME280;35177;45.900;5.946;2022-09-25T06:13:02;97153.41;;;10.69;100.00
49311;BME280;35177;45.900;5.946;2022-09-25T06:15:35;97158.47;;;10.75;100.00
49311;BME280;35177;45.900;5.946;2022-09-25T06:18:06;97145.91;;;10.78;100.00
49311;BME280;35177;45.900;5.946;2022-09-25T06:20:32;97153.56;;;10.72;100.00
49311;BME280;35177;45.900;5.946;2022-09-25T06:22:58;97157.31;;;10.68;100.00
49311;BME280;35177;45.900;5.946;2022-09-25T06:25:28;97162.22;;;10.71;100.00
49311;BME280;35177;45.900;5.946;2022-09-25T06:27:57;97152.09;;;10.75;100.00
49311;BME280;35177;45.900;5.946;2022-09-25T06:30:25;97142.63;;;10.76;100.00
49311;BME280;35177;45.900;5.946;2022-09-25T06:33:18;97137.22;;;10.80;100.00
49311;BME280;35177;45.900;5.946;2022-09-25T06:35:47;97150.28;;;10.70;100.00
49311;BME280;35177;45.900;5.946;2022-09-25T06:38:14;97156.19;;;10.69;100.00
49311;BME280;35177;45.900;5.946;2022-09-25T06:40:41;97156.66;;;10.80;100.00
49311;BME280;35177;45.900;5.946;2022-09-25T06:43:09;97165.00;;;10.71;100.00
49311;BME280;35177;45.900;5.946;2022-09-25T06:45:35;97163.53;;;10.56;100.00
49311;BME280;35177;45.900;5.946;2022-09-25T06:48:04;97169.41;;;10.63;100.00
49311;BME280;35177;45.900;5.946;2022-09-25T06:50:43;97165.47;;;10.64;100.00
49311;BME280;35177;45.900;5.946;2022-09-25T06:53:10;97169.38;;;10.54;100.00
49311;BME280;35177;45.900;5.946;2022-09-25T06:55:36;97164.66;;;10.72;100.00
49311;BME280;35177;45.900;5.946;2022-09-25T06:58:04;97163.88;;;10.63;100.00
49311;BME280;35177;45.900;5.946;2022-09-25T07:00:31;97165.97;;;10.66;100.00
49311;BME280;35177;45.900;5.946;2022-09-25T07:02:58;97163.53;;;10.73;100.00
49311;BME280;35177;45.900;5.946;2022-09-25T07:05:43;97169.25;;;10.77;100.00
49311;BME280;35177;45.900;5.946;2022-09-25T07:08:13;97166.47;;;10.77;100.00
49311;BME280;35177;45.900;5.946;2022-09-25T07:10:46;97175.91;;;10.93;100.00
49311;BME280;35177;45.900;5.946;2022-09-25T07:13:12;97169.72;;;10.88;100.00
49311;BME280;35177;45.900;5.946;2022-09-25T07:15:37;97174.28;;;10.92;100.00
49311;BME280;35177;45.900;5.946;2022-09-25T07:18:03;97174.28;;;10.92;100.00
49311;BME280;35177;45.900;5.946;2022-09-25T07:20:29;97171.66;;;10.87;100.00
49311;BME280;35177;45.900;5.946;2022-09-25T07:22:58;97172.81;;;10.95;100.00
49311;BME280;35177;45.900;5.946;2022-09-25T07:25:25;97176.06;;;10.97;100.00
49311;BME280;35177;45.900;5.946;2022-09-25T07:27:51;97171.97;;;11.03;100.00
49311;BME280;35177;45.900;5.946;2022-09-25T07:30:16;97179.50;;;11.03;100.00
49311;BME280;35177;45.900;5.946;2022-09-25T07:32:43;97178.38;;;11.04;100.00
49311;BME280;35177;45.900;5.946;2022-09-25T07:35:08;97176.72;;;11.03;100.00
49311;BME280;35177;45.900;5.946;2022-09-25T07:37:34;97175.91;;;11.02;100.00
49311;BME280;35177;45.900;5.946;2022-09-25T07:39:59;97173.13;;;11.02;100.00
49311;BME280;35177;45.900;5.946;2022-09-25T07:42:25;97178.38;;;11.04;100.00
49311;BME280;35177;45.900;5.946;2022-09-25T07:44:50;97179.66;;;11.06;100.00
49311;BME280;35177;45.900;5.946;2022-09-25T07:47:16;97187.00;;;11.02;100.00
49311;BME280;35177;45.900;5.946;2022-09-25T07:49:44;97187.50;;;11.04;100.00
49311;BME280;35177;45.900;5.946;2022-09-25T07:52:09;97194.53;;;11.02;100.00
49311;BME280;35177;45.900;5.946;2022-09-25T07:54:35;97190.28;;;11.04;100.00
49311;BME280;35177;45.900;5.946;2022-09-25T07:57:02;97192.88;;;11.09;100.00
49311;BME280;35177;45.900;5.946;2022-09-25T07:59:27;97193.22;;;11.08;100.00
49311;BME280;35177;45.900;5.946;2022-09-25T08:01:53;97198.94;;;11.12;100.00
49311;BME280;35177;45.900;5.946;2022-09-25T08:04:18;97200.72;;;11.16;100.00
49311;BME280;35177;45.900;5.946;2022-09-25T08:06:44;97201.38;;;11.13;100.00
49311;BME280;35177;45.900;5.946;2022-09-25T08:09:10;97199.06;;;11.24;100.00
49311;BME280;35177;45.900;5.946;2022-09-25T08:11:36;97196.13;;;11.20;100.00
49311;BME280;35177;45.900;5.946;2022-09-25T08:14:02;97199.53;;;11.35;100.00
49311;BME280;35177;45.900;5.946;2022-09-25T08:16:27;97190.19;;;11.48;100.00
49311;BME280;35177;45.900;5.946;2022-09-25T08:18:53;97185.56;;;11.61;100.00
49311;BME280;35177;45.900;5.946;2022-09-25T08:21:19;97191.06;;;11.70;100.00
49311;BME280;35177;45.900;5.946;2022-09-25T08:23:50;97187.13;;;11.80;100.00
49311;BME280;35177;45.900;5.946;2022-09-25T08:26:17;97192.38;;;11.81;100.00
49311;BME280;35177;45.900;5.946;2022-09-25T08:28:43;97194.31;;;11.81;100.00
49311;BME280;35177;45.900;5.946;2022-09-25T08:31:09;97199.41;;;11.79;100.00
49311;BME280;35177;45.900;5.946;2022-09-25T08:33:35;97190.53;;;11.85;100.00
49311;BME280;35177;45.900;5.946;2022-09-25T08:36:03;97194.91;;;11.95;100.00
49311;BME280;35177;45.900;5.946;2022-09-25T08:38:29;97201.94;;;12.01;100.00
49311;BME280;35177;45.900;5.946;2022-09-25T08:43:36;97211.59;;;11.95;100.00
49311;BME280;35177;45.900;5.946;2022-09-25T08:46:04;97210.41;;;11.66;100.00
49311;BME280;35177;45.900;5.946;2022-09-25T08:48:55;97207.91;;;11.73;100.00
49311;BME280;35177;45.900;5.946;2022-09-25T08:51:32;97208.50;;;11.88;100.00
49311;BME280;35177;45.900;5.946;2022-09-25T08:54:02;97204.06;;;11.96;100.00
49311;BME280;35177;45.900;5.946;2022-09-25T08:56:28;97210.13;;;11.98;100.00
49311;BME280;35177;45.900;5.946;2022-09-25T08:58:54;97209.13;;;12.02;100.00
49311;BME280;35177;45.900;5.946;2022-09-25T09:01:27;97209.28;;;12.06;100.00
49311;BME280;35177;45.900;5.946;2022-09-25T09:04:05;97209.94;;;12.03;100.00
49311;BME280;35177;45.900;5.946;2022-09-25T09:06:36;97212.69;;;12.12;100.00
49311;BME280;35177;45.900;5.946;2022-09-25T09:09:21;97223.16;;;12.15;100.00
49311;BME280;35177;45.900;5.946;2022-09-25T09:11:53;97214.34;;;12.04;100.00
49311;BME280;35177;45.900;5.946;2022-09-25T09:14:25;97211.72;;;12.08;100.00
49311;BME280;35177;45.900;5.946;2022-09-25T09:17:07;97216.09;;;12.17;100.00
49311;BME280;35177;45.900;5.946;2022-09-25T09:19:37;97218.38;;;12.15;100.00
49311;BME280;35177;45.900;5.946;2022-09-25T09:22:09;97221.91;;;12.03;100.00
49311;BME280;35177;45.900;5.946;2022-09-25T09:29:51;97225.38;;;12.21;100.00
49311;BME280;35177;45.900;5.946;2022-09-25T09:35:23;97218.78;;;12.35;100.00
49311;BME280;35177;45.900;5.946;2022-09-25T09:38:00;97221.03;;;12.42;100.00
49311;BME280;35177;45.900;5.946;2022-09-25T09:40:58;97225.13;;;12.44;100.00
49311;BME280;35177;45.900;5.946;2022-09-25T09:49:05;97224.81;;;12.37;100.00
49311;BME280;35177;45.900;5.946;2022-09-25T09:54:11;97230.00;;;12.47;100.00
49311;BME280;35177;45.900;5.946;2022-09-25T09:56:41;97229.13;;;12.56;100.00
49311;BME280;35177;45.900;5.946;2022-09-25T09:59:30;97230.47;;;12.49;100.00
49311;BME280;35177;45.900;5.946;2022-09-25T10:02:02;97231.16;;;12.46;100.00
49311;BME280;35177;45.900;5.946;2022-09-25T10:04:36;97231.72;;;12.31;100.00
49311;BME280;35177;45.900;5.946;2022-09-25T10:07:11;97229.59;;;12.36;100.00
49311;BME280;35177;45.900;5.946;2022-09-25T10:09:41;97229.75;;;12.31;100.00
49311;BME280;35177;45.900;5.946;2022-09-25T10:12:33;97235.63;;;12.38;100.00
49311;BME280;35177;45.900;5.946;2022-09-25T10:15:11;97233.81;;;12.43;100.00
49311;BME280;35177;45.900;5.946;2022-09-25T10:17:38;97234.59;;;12.43;100.00
49311;BME280;35177;45.900;5.946;2022-09-25T10:20:19;97236.25;;;12.44;100.00
49311;BME280;35177;45.900;5.946;2022-09-25T10:22:45;97235.47;;;12.35;100.00
49311;BME280;35177;45.900;5.946;2022-09-25T10:25:11;97235.69;;;12.51;100.00
49311;BME280;35177;45.900;5.946;2022-09-25T10:27:39;97233.88;;;12.55;100.00
49311;BME280;35177;45.900;5.946;2022-09-25T10:30:16;97229.41;;;12.63;100.00
49311;BME280;35177;45.900;5.946;2022-09-25T10:35:28;97229.34;;;12.72;100.00
49311;BME280;35177;45.900;5.946;2022-09-25T10:37:57;97234.53;;;12.82;100.00
49311;BME280;35177;45.900;5.946;2022-09-25T10:40:30;97229.75;;;12.82;100.00
49311;BME280;35177;45.900;5.946;2022-09-25T10:43:15;97224.31;;;12.86;100.00
49311;BME280;35177;45.900;5.946;2022-09-25T10:45:41;97222.41;;;12.99;100.00
49311;BME280;35177;45.900;5.946;2022-09-25T10:51:35;97231.56;;;13.21;100.00
49311;BME280;35177;45.900;5.946;2022-09-25T10:54:15;97229.59;;;13.42;100.00
49311;BME280;35177;45.900;5.946;2022-09-25T10:56:41;97223.16;;;13.63;100.00
49311;BME280;35177;45.900;5.946;2022-09-25T10:59:19;97216.59;;;14.05;100.00
49311;BME280;35177;45.900;5.946;2022-09-25T11:01:48;97220.19;;;14.30;100.00
49311;BME280;35177;45.900;5.946;2022-09-25T11:04:18;97217.22;;;14.88;100.00
49311;BME280;35177;45.900;5.946;2022-09-25T11:06:48;97216.28;;;14.84;100.00
49311;BME280;35177;45.900;5.946;2022-09-25T11:09:36;97224.84;;;14.38;100.00
49311;BME280;35177;45.900;5.946;2022-09-25T11:12:25;97224.34;;;14.61;100.00
49311;BME280;35177;45.900;5.946;2022-09-25T11:14:59;97221.66;;;14.65;100.00
49311;BME280;35177;45.900;5.946;2022-09-25T11:17:48;97218.09;;;14.52;100.00
49311;BME280;35177;45.900;5.946;2022-09-25T11:22:43;97218.19;;;14.80;100.00
49311;BME280;35177;45.900;5.946;2022-09-25T11:27:58;97212.31;;;14.98;100.00
49311;BME280;35177;45.900;5.946;2022-09-25T11:30:44;97217.94;;;14.60;100.00
49311;BME280;35177;45.900;5.946;2022-09-25T11:33:38;97215.25;;;14.89;100.00
49311;BME280;35177;45.900;5.946;2022-09-25T11:36:19;97218.28;;;14.84;100.00
49311;BME280;35177;45.900;5.946;2022-09-25T11:38:51;97211.66;;;14.88;100.00
49311;BME280;35177;45.900;5.946;2022-09-25T11:44:27;97216.22;;;14.43;100.00
49311;BME280;35177;45.900;5.946;2022-09-25T11:49:40;97214.03;;;14.37;100.00
49311;BME280;35177;45.900;5.946;2022-09-25T11:52:24;97211.78;;;14.42;100.00
49311;BME280;35177;45.900;5.946;2022-09-25T12:00:32;97210.31;;;14.20;100.00
49311;BME280;35177;45.900;5.946;2022-09-25T12:08:39;97214.59;;;14.30;100.00
49311;BME280;35177;45.900;5.946;2022-09-25T12:13:45;97216.34;;;14.22;100.00
49311;BME280;35177;45.900;5.946;2022-09-25T12:16:26;97206.09;;;14.26;100.00
49311;BME280;35177;45.900;5.946;2022-09-25T12:21:32;97214.00;;;14.24;100.00
49311;BME280;35177;45.900;5.946;2022-09-25T12:35:36;97191.88;;;14.81;100.00
49311;BME280;35177;45.900;5.946;2022-09-25T12:38:17;97189.31;;;14.63;100.00
49311;BME280;35177;45.900;5.946;2022-09-25T12:40:52;97190.81;;;14.73;100.00
49311;BME280;35177;45.900;5.946;2022-09-25T12:44:10;97183.34;;;14.90;100.00
49311;BME280;35177;45.900;5.946;2022-09-25T12:46:27;97181.66;;;15.01;100.00
49311;BME280;35177;45.900;5.946;2022-09-25T12:49:17;97175.72;;;15.03;100.00
49311;BME280;35177;45.900;5.946;2022-09-25T12:51:47;97182.72;;;15.25;100.00
49311;BME280;35177;45.900;5.946;2022-09-25T12:54:30;97177.00;;;15.34;100.00
49311;BME280;35177;45.900;5.946;2022-09-25T12:57:08;97179.72;;;14.89;100.00
49311;BME280;35177;45.900;5.946;2022-09-25T12:59:44;97181.38;;;15.35;100.00
49311;BME280;35177;45.900;5.946;2022-09-25T13:07:43;97183.53;;;15.70;100.00
49311;BME280;35177;45.900;5.946;2022-09-25T13:10:42;97183.94;;;15.40;100.00
49311;BME280;35177;45.900;5.946;2022-09-25T13:13:14;97186.41;;;15.13;100.00
49311;BME280;35177;45.900;5.946;2022-09-25T13:15:47;97189.03;;;15.22;100.00
49311;BME280;35177;45.900;5.946;2022-09-25T13:18:17;97185.78;;;15.20;100.00
49311;BME280;35177;45.900;5.946;2022-09-25T13:25:48;97183.56;;;14.97;100.00
49311;BME280;35177;45.900;5.946;2022-09-25T13:28:27;97185.34;;;14.77;100.00
49311;BME280;35177;45.900;5.946;2022-09-25T13:31:09;97187.91;;;14.70;100.00
49311;BME280;35177;45.900;5.946;2022-09-25T13:34:04;97183.69;;;14.88;100.00
49311;BME280;35177;45.900;5.946;2022-09-25T13:39:06;97186.44;;;15.01;100.00
49311;BME280;35177;45.900;5.946;2022-09-25T13:41:58;97197.06;;;14.95;100.00
49311;BME280;35177;45.900;5.946;2022-09-25T14:00:23;97196.00;;;14.22;100.00
49311;BME280;35177;45.900;5.946;2022-09-25T14:02:51;97197.19;;;14.21;100.00
49311;BME280;35177;45.900;5.946;2022-09-25T14:05:26;97209.38;;;14.16;100.00
49311;BME280;35177;45.900;5.946;2022-09-25T14:08:02;97198.56;;;14.14;100.00
49311;BME280;35177;45.900;5.946;2022-09-25T14:10:31;97201.00;;;14.16;100.00
49311;BME280;35177;45.900;5.946;2022-09-25T14:12:58;97197.16;;;14.08;100.00
49311;BME280;35177;45.900;5.946;2022-09-25T14:15:32;97194.47;;;14.12;100.00
49311;BME280;35177;45.900;5.946;2022-09-25T14:18:05;97195.88;;;14.18;100.00
49311;BME280;35177;45.900;5.946;2022-09-25T14:20:42;97202.63;;;14.17;100.00
49311;BME280;35177;45.900;5.946;2022-09-25T14:23:21;97202.84;;;14.24;100.00
49311;BME280;35177;45.900;5.946;2022-09-25T14:25:59;97209.38;;;14.28;100.00
49311;BME280;35177;45.900;5.946;2022-09-25T14:28:31;97199.72;;;14.26;100.00
49311;BME280;35177;45.900;5.946;2022-09-25T14:34:03;97207.16;;;14.22;100.00
49311;BME280;35177;45.900;5.946;2022-09-25T14:39:46;97205.88;;;14.19;100.00
49311;BME280;35177;45.900;5.946;2022-09-25T14:42:54;97214.09;;;13.78;100.00
49311;BME280;35177;45.900;5.946;2022-09-25T14:48:08;97212.25;;;13.82;100.00
49311;BME280;35177;45.900;5.946;2022-09-25T14:50:49;97205.59;;;13.62;100.00
49311;BME280;35177;45.900;5.946;2022-09-25T14:53:30;97205.38;;;13.68;100.00
49311;BME280;35177;45.900;5.946;2022-09-25T14:55:58;97210.69;;;13.60;100.00
49311;BME280;35177;45.900;5.946;2022-09-25T14:58:29;97205.09;;;13.48;100.00
49311;BME280;35177;45.900;5.946;2022-09-25T15:01:04;97215.34;;;13.23;100.00
49311;BME280;35177;45.900;5.946;2022-09-25T15:03:41;97211.44;;;13.15;100.00
49311;BME280;35177;45.900;5.946;2022-09-25T15:06:07;97219.97;;;13.31;100.00
49311;BME280;35177;45.900;5.946;2022-09-25T15:08:38;97222.28;;;13.16;100.00
49311;BME280;35177;45.900;5.946;2022-09-25T15:11:16;97223.16;;;13.08;100.00
49311;BME280;35177;45.900;5.946;2022-09-25T15:13:42;97227.41;;;13.27;100.00
49311;BME280;35177;45.900;5.946;2022-09-25T15:16:34;97226.53;;;13.35;100.00
49311;BME280;35177;45.900;5.946;2022-09-25T15:19:23;97234.41;;;13.33;100.00
49311;BME280;35177;45.900;5.946;2022-09-25T15:21:51;97238.22;;;13.28;100.00
49311;BME280;35177;45.900;5.946;2022-09-25T15:24:21;97242.03;;;13.24;100.00
49311;BME280;35177;45.900;5.946;2022-09-25T15:26:57;97237.69;;;12.93;100.00